sensor_id;sensor_type;location;lat;lon;timestamp;pressure;altitude;pressure_sealevel;temperature;humidity
11415;BME280;5763;42.714;23.244;2023-01-25T00:02:05;95654.13;;;5.41;66.38
11415;BME280;5763;42.714;23.244;2023-01-25T00:04:32;95650.66;;;5.37;66.54
11415;BME280;5763;42.714;23.244;2023-01-25T00:06:59;95665.44;;;5.25;67.00
11415;BME280;5763;42.714;23.244;2023-01-25T00:09:26;95662.34;;;5.16;67.41
11415;BME280;5763;42.714;23.244;2023-01-25T00:11:52;95658.44;;;5.24;67.30
11415;BME280;5763;42.714;23.244;2023-01-25T00:14:20;95661.53;;;5.26;66.90
11415;BME280;5763;42.714;23.244;2023-01-25T00:16:49;95661.94;;;5.14;67.49
11415;BME280;5763;42.714;23.244;2023-01-25T00:19:16;95656.94;;;5.13;67.86
11415;BME280;5763;42.714;23.244;2023-01-25T00:21:43;95655.38;;;5.12;67.80
11415;BME280;5763;42.714;23.244;2023-01-25T00:24:10;95663.13;;;5.06;67.61
11415;BME280;5763;42.714;23.244;2023-01-25T00:26:39;95653.84;;;5.07;67.69
11415;BME280;5763;42.714;23.244;2023-01-25T00:29:10;95646.47;;;4.97;67.21
11415;BME280;5763;42.714;23.244;2023-01-25T00:31:43;95666.59;;;5.17;66.94
11415;BME280;5763;42.714;23.244;2023-01-25T00:34:37;95661.56;;;5.12;66.52
11415;BME280;5763;42.714;23.244;2023-01-25T00:37:13;95657.31;;;5.01;66.88
11415;BME280;5763;42.714;23.244;2023-01-25T00:39:44;95661.59;;;4.98;66.83
11415;BME280;5763;42.714;23.244;2023-01-25T00:42:11;95657.72;;;4.92;66.56
11415;BME280;5763;42.714;23.244;2023-01-25T00:44:38;95663.16;;;4.92;66.60
11415;BME280;5763;42.714;23.244;2023-01-25T00:47:05;95658.50;;;5.00;66.65
11415;BME280;5763;42.714;23.244;2023-01-25T00:49:34;95653.44;;;4.98;66.83
11415;BME280;5763;42.714;23.244;2023-01-25T00:52:02;95663.13;;;5.06;66.60
11415;BME280;5763;42.714;23.244;2023-01-25T00:54:29;95662.75;;;5.08;66.16
11415;BME280;5763;42.714;23.244;2023-01-25T00:56:56;95668.56;;;5.10;65.99
11415;BME280;5763;42.714;23.244;2023-01-25T00:59:23;95659.66;;;5.09;66.00
11415;BME280;5763;42.714;23.244;2023-01-25T01:01:50;95667.00;;;5.12;65.82
11415;BME280;5763;42.714;23.244;2023-01-25T01:04:18;95668.16;;;5.11;65.80
11415;BME280;5763;42.714;23.244;2023-01-25T01:06:46;95671.66;;;5.12;65.62
11415;BME280;5763;42.714;23.244;2023-01-25T01:09:15;95660.81;;;5.15;65.31
11415;BME280;5763;42.714;23.244;2023-01-25T01:11:42;95673.22;;;5.02;65.91
11415;BME280;5763;42.714;23.244;2023-01-25T01:14:09;95660.06;;;5.04;65.88
11415;BME280;5763;42.714;23.244;2023-01-25T01:16:36;95660.06;;;4.94;66.18
11415;BME280;5763;42.714;23.244;2023-01-25T01:19:03;95661.25;;;4.89;65.81
11415;BME280;5763;42.714;23.244;2023-01-25T01:21:29;95656.19;;;4.91;66.27
11415;BME280;5763;42.714;23.244;2023-01-25T01:23:58;95646.47;;;5.01;65.93
11415;BME280;5763;42.714;23.244;2023-01-25T01:26:25;95650.75;;;5.05;65.39
11415;BME280;5763;42.714;23.244;2023-01-25T01:28:51;95648.41;;;5.07;65.68
11415;BME280;5763;42.714;23.244;2023-01-25T01:31:20;95644.16;;;5.03;65.12
11415;BME280;5763;42.714;23.244;2023-01-25T01:33:48;95651.50;;;5.02;65.32
11415;BME280;5763;42.714;23.244;2023-01-25T01:36:17;95644.53;;;5.05;65.58
11415;BME280;5763;42.714;23.244;2023-01-25T01:38:45;95643.75;;;5.11;65.24
11415;BME280;5763;42.714;23.244;2023-01-25T01:41:14;95639.50;;;5.00;65.35
11415;BME280;5763;42.714;23.244;2023-01-25T01:43:41;95634.47;;;5.05;65.86
11415;BME280;5763;42.714;23.244;2023-01-25T01:46:10;95641.41;;;5.13;65.18
11415;BME280;5763;42.714;23.244;2023-01-25T01:48:43;95630.19;;;5.01;64.84
11415;BME280;5763;42.714;23.244;2023-01-25T01:51:15;95632.16;;;4.97;65.43
11415;BME280;5763;42.714;23.244;2023-01-25T01:53:47;95633.28;;;5.10;65.02
11415;BME280;5763;42.714;23.244;2023-01-25T01:56:20;95632.88;;;5.15;64.72
11415;BME280;5763;42.714;23.244;2023-01-25T01:58:49;95634.06;;;5.10;65.21
11415;BME280;5763;42.714;23.244;2023-01-25T02:01:19;95634.88;;;4.97;65.33
11415;BME280;5763;42.714;23.244;2023-01-25T02:03:46;95645.72;;;5.00;65.54
11415;BME280;5763;42.714;23.244;2023-01-25T02:06:17;95643.38;;;5.02;65.88
11415;BME280;5763;42.714;23.244;2023-01-25T02:08:47;95639.16;;;4.94;65.65
11415;BME280;5763;42.714;23.244;2023-01-25T02:11:16;95644.56;;;5.01;65.37
11415;BME280;5763;42.714;23.244;2023-01-25T02:13:43;95640.66;;;5.06;65.50
11415;BME280;5763;42.714;23.244;2023-01-25T02:16:13;95643.75;;;5.01;65.38
11415;BME280;5763;42.714;23.244;2023-01-25T02:18:42;95638.75;;;4.96;65.63
11415;BME280;5763;42.714;23.244;2023-01-25T02:21:09;95637.56;;;4.93;65.74
11415;BME280;5763;42.714;23.244;2023-01-25T02:23:40;95637.22;;;4.81;66.27
11415;BME280;5763;42.714;23.244;2023-01-25T02:26:15;95638.38;;;4.90;66.13
11415;BME280;5763;42.714;23.244;2023-01-25T02:28:47;95632.16;;;4.90;65.69
11415;BME280;5763;42.714;23.244;2023-01-25T02:31:15;95634.50;;;4.84;66.15
11415;BME280;5763;42.714;23.244;2023-01-25T02:33:42;95641.84;;;4.91;65.50
11415;BME280;5763;42.714;23.244;2023-01-25T02:36:19;95639.13;;;4.87;65.83
11415;BME280;5763;42.714;23.244;2023-01-25T02:38:50;95632.19;;;4.79;65.88
11415;BME280;5763;42.714;23.244;2023-01-25T02:41:24;95627.16;;;4.74;65.59
11415;BME280;5763;42.714;23.244;2023-01-25T02:43:51;95620.56;;;4.79;66.06
11415;BME280;5763;42.714;23.244;2023-01-25T02:46:22;95620.16;;;4.87;65.68
11415;BME280;5763;42.714;23.244;2023-01-25T02:48:51;95626.03;;;4.68;65.77
11415;BME280;5763;42.714;23.244;2023-01-25T02:51:19;95627.56;;;4.69;65.59
11415;BME280;5763;42.714;23.244;2023-01-25T02:53:47;95615.97;;;4.58;65.92
11415;BME280;5763;42.714;23.244;2023-01-25T02:56:14;95610.91;;;4.67;65.56
11415;BME280;5763;42.714;23.244;2023-01-25T02:58:42;95631.38;;;4.86;65.34
11415;BME280;5763;42.714;23.244;2023-01-25T03:01:10;95629.47;;;4.86;64.85
11415;BME280;5763;42.714;23.244;2023-01-25T03:03:37;95629.06;;;4.91;64.62
11415;BME280;5763;42.714;23.244;2023-01-25T03:06:05;95631.41;;;4.93;65.05
11415;BME280;5763;42.714;23.244;2023-01-25T03:08:31;95639.13;;;4.87;64.99
11415;BME280;5763;42.714;23.244;2023-01-25T03:10:59;95633.72;;;4.84;65.37
11415;BME280;5763;42.714;23.244;2023-01-25T03:13:27;95628.28;;;4.87;65.31
11415;BME280;5763;42.714;23.244;2023-01-25T03:15:59;95633.31;;;4.92;64.99
11415;BME280;5763;42.714;23.244;2023-01-25T03:18:27;95627.53;;;4.90;65.25
11415;BME280;5763;42.714;23.244;2023-01-25T03:20:54;95619.78;;;4.85;65.34
11415;BME280;5763;42.714;23.244;2023-01-25T03:23:21;95628.69;;;4.82;65.28
11415;BME280;5763;42.714;23.244;2023-01-25T03:25:48;95630.25;;;4.90;65.51
11415;BME280;5763;42.714;23.244;2023-01-25T03:28:15;95630.63;;;4.78;66.06
11415;BME280;5763;42.714;23.244;2023-01-25T03:30:41;95623.66;;;4.84;65.61
11415;BME280;5763;42.714;23.244;2023-01-25T03:33:09;95627.53;;;4.90;65.42
11415;BME280;5763;42.714;23.244;2023-01-25T03:35:36;95632.16;;;4.97;65.16
11415;BME280;5763;42.714;23.244;2023-01-25T03:38:03;95625.97;;;4.89;65.68
11415;BME280;5763;42.714;23.244;2023-01-25T03:40:30;95622.47;;;4.92;65.03
11415;BME280;5763;42.714;23.244;2023-01-25T03:42:57;95623.66;;;4.91;65.05
11415;BME280;5763;42.714;23.244;2023-01-25T03:45:23;95623.63;;;4.95;65.06
11415;BME280;5763;42.714;23.244;2023-01-25T03:47:50;95625.19;;;4.96;64.74
11415;BME280;5763;42.714;23.244;2023-01-25T03:50:18;95616.69;;;4.87;64.94
11415;BME280;5763;42.714;23.244;2023-01-25T03:52:50;95621.34;;;4.76;65.31
11415;BME280;5763;42.714;23.244;2023-01-25T03:55:31;95616.31;;;4.81;65.90
11415;BME280;5763;42.714;23.244;2023-01-25T03:57:58;95610.50;;;4.79;65.80
11415;BME280;5763;42.714;23.244;2023-01-25T04:00:25;95617.84;;;4.82;64.79
11415;BME280;5763;42.714;23.244;2023-01-25T04:02:52;95608.53;;;4.90;64.53
11415;BME280;5763;42.714;23.244;2023-01-25T04:05:20;95609.31;;;4.87;64.65
11415;BME280;5763;42.714;23.244;2023-01-25T04:07:47;95611.28;;;4.87;64.91
11415;BME280;5763;42.714;23.244;2023-01-25T04:10:14;95612.03;;;4.94;64.81
11415;BME280;5763;42.714;23.244;2023-01-25T04:12:41;95608.91;;;5.03;64.66
11415;BME280;5763;42.714;23.244;2023-01-25T04:15:09;95612.78;;;5.05;64.23
11415;BME280;5763;42.714;23.244;2023-01-25T04:17:35;95615.88;;;5.04;64.11
11415;BME280;5763;42.714;23.244;2023-01-25T04:20:02;95608.53;;;4.94;64.59
11415;BME280;5763;42.714;23.244;2023-01-25T04:22:31;95611.22;;;5.01;64.20
11415;BME280;5763;42.714;23.244;2023-01-25T04:24:58;95606.59;;;5.01;64.03
11415;BME280;5763;42.714;23.244;2023-01-25T04:27:24;95606.56;;;5.05;63.86
11415;BME280;5763;42.714;23.244;2023-01-25T04:29:51;95607.34;;;5.05;63.84
11415;BME280;5763;42.714;23.244;2023-01-25T04:32:18;95619.75;;;5.06;63.79
11415;BME280;5763;42.714;23.244;2023-01-25T04:34:45;95625.94;;;5.03;63.60
11415;BME280;5763;42.714;23.244;2023-01-25T04:37:11;95620.91;;;4.98;63.85
11415;BME280;5763;42.714;23.244;2023-01-25T04:39:39;95618.19;;;4.98;63.96
11415;BME280;5763;42.714;23.244;2023-01-25T04:42:06;95619.75;;;4.92;63.93
11415;BME280;5763;42.714;23.244;2023-01-25T04:44:33;95627.94;;;4.85;64.75
11415;BME280;5763;42.714;23.244;2023-01-25T04:47:00;95623.66;;;4.91;64.92
11415;BME280;5763;42.714;23.244;2023-01-25T04:49:28;95622.88;;;4.94;64.26
11415;BME280;5763;42.714;23.244;2023-01-25T04:51:54;95620.94;;;4.91;64.60
11415;BME280;5763;42.714;23.244;2023-01-25T04:54:21;95624.41;;;4.95;64.67
11415;BME280;5763;42.714;23.244;2023-01-25T04:56:49;95624.41;;;4.99;64.53
11415;BME280;5763;42.714;23.244;2023-01-25T04:59:16;95625.19;;;5.03;64.80
11415;BME280;5763;42.714;23.244;2023-01-25T05:01:43;95620.94;;;5.02;64.91
11415;BME280;5763;42.714;23.244;2023-01-25T05:04:10;95603.09;;;4.97;64.47
11415;BME280;5763;42.714;23.244;2023-01-25T05:06:36;95609.25;;;5.08;64.05
11415;BME280;5763;42.714;23.244;2023-01-25T05:09:03;95624.78;;;4.97;64.21
11415;BME280;5763;42.714;23.244;2023-01-25T05:11:30;95625.19;;;4.99;64.14
11415;BME280;5763;42.714;23.244;2023-01-25T05:13:58;95623.63;;;4.95;64.53
11415;BME280;5763;42.714;23.244;2023-01-25T05:16:25;95616.66;;;4.97;64.36
11415;BME280;5763;42.714;23.244;2023-01-25T05:18:53;95617.81;;;4.96;64.35
11415;BME280;5763;42.714;23.244;2023-01-25T05:21:20;95618.22;;;4.91;63.99
11415;BME280;5763;42.714;23.244;2023-01-25T05:24:04;95604.72;;;4.70;65.13
11415;BME280;5763;42.714;23.244;2023-01-25T05:26:31;95607.38;;;4.81;65.14
11415;BME280;5763;42.714;23.244;2023-01-25T05:29:16;95617.06;;;4.85;64.62
11415;BME280;5763;42.714;23.244;2023-01-25T05:31:43;95610.47;;;4.86;64.57
11415;BME280;5763;42.714;23.244;2023-01-25T05:34:10;95615.91;;;4.86;65.04
11415;BME280;5763;42.714;23.244;2023-01-25T05:36:37;95612.03;;;4.94;64.24
11415;BME280;5763;42.714;23.244;2023-01-25T05:39:04;95613.97;;;4.80;64.85
11415;BME280;5763;42.714;23.244;2023-01-25T05:41:33;95608.19;;;4.74;64.47
11415;BME280;5763;42.714;23.244;2023-01-25T05:43:59;95610.50;;;4.83;64.40
11415;BME280;5763;42.714;23.244;2023-01-25T05:46:28;95613.59;;;4.92;64.66
11415;BME280;5763;42.714;23.244;2023-01-25T05:48:55;95622.88;;;4.98;64.45
11415;BME280;5763;42.714;23.244;2023-01-25T05:51:22;95616.66;;;4.97;64.70
11415;BME280;5763;42.714;23.244;2023-01-25T05:53:49;95615.13;;;4.89;65.29
11415;BME280;5763;42.714;23.244;2023-01-25T05:56:15;95617.84;;;4.82;64.94
11415;BME280;5763;42.714;23.244;2023-01-25T05:58:42;95627.91;;;4.89;65.41
11415;BME280;5763;42.714;23.244;2023-01-25T06:01:09;95614.78;;;4.77;66.21
11415;BME280;5763;42.714;23.244;2023-01-25T06:03:37;95625.97;;;4.82;67.03
11415;BME280;5763;42.714;23.244;2023-01-25T06:06:04;95615.53;;;4.74;67.18
11415;BME280;5763;42.714;23.244;2023-01-25T06:08:31;95627.16;;;4.81;66.90
11415;BME280;5763;42.714;23.244;2023-01-25T06:10:58;95629.47;;;4.86;66.13
11415;BME280;5763;42.714;23.244;2023-01-25T06:13:27;95625.97;;;4.82;66.44
11415;BME280;5763;42.714;23.244;2023-01-25T06:15:55;95632.56;;;4.85;66.50
11415;BME280;5763;42.714;23.244;2023-01-25T06:18:22;95627.94;;;4.85;66.47
11415;BME280;5763;42.714;23.244;2023-01-25T06:20:51;95634.13;;;4.79;66.83
11415;BME280;5763;42.714;23.244;2023-01-25T06:23:18;95629.09;;;4.77;66.34
11415;BME280;5763;42.714;23.244;2023-01-25T06:25:44;95631.41;;;4.79;66.26
11415;BME280;5763;42.714;23.244;2023-01-25T06:28:11;95631.44;;;4.75;66.35
11415;BME280;5763;42.714;23.244;2023-01-25T06:30:38;95627.53;;;4.83;65.98
11415;BME280;5763;42.714;23.244;2023-01-25T06:33:04;95622.88;;;4.73;66.14
11415;BME280;5763;42.714;23.244;2023-01-25T06:35:32;95625.22;;;4.75;66.68
11415;BME280;5763;42.714;23.244;2023-01-25T06:38:00;95622.50;;;4.85;66.48
11415;BME280;5763;42.714;23.244;2023-01-25T06:40:27;95621.72;;;4.95;66.60
11415;BME280;5763;42.714;23.244;2023-01-25T06:42:54;95621.34;;;4.83;66.97
11415;BME280;5763;42.714;23.244;2023-01-25T06:45:21;95617.47;;;4.80;66.79
11415;BME280;5763;42.714;23.244;2023-01-25T06:47:48;95591.94;;;4.60;67.29
11415;BME280;5763;42.714;23.244;2023-01-25T06:50:15;95612.06;;;4.80;67.81
11415;BME280;5763;42.714;23.244;2023-01-25T06:52:41;95624.03;;;4.93;66.93
11415;BME280;5763;42.714;23.244;2023-01-25T06:55:10;95614.72;;;4.91;66.61
11415;BME280;5763;42.714;23.244;2023-01-25T06:57:38;95625.56;;;4.91;67.16
11415;BME280;5763;42.714;23.244;2023-01-25T07:00:06;95620.16;;;4.87;67.03
11415;BME280;5763;42.714;23.244;2023-01-25T07:02:34;95617.84;;;4.86;66.81
11415;BME280;5763;42.714;23.244;2023-01-25T07:05:02;95618.59;;;4.90;66.83
11415;BME280;5763;42.714;23.244;2023-01-25T07:07:28;95619.78;;;4.85;66.88
11415;BME280;5763;42.714;23.244;2023-01-25T07:09:55;95614.34;;;4.92;66.96
11415;BME280;5763;42.714;23.244;2023-01-25T07:12:24;95624.78;;;4.97;66.56
11415;BME280;5763;42.714;23.244;2023-01-25T07:14:51;95611.28;;;4.87;66.95
11415;BME280;5763;42.714;23.244;2023-01-25T07:17:18;95612.03;;;4.94;66.90
11415;BME280;5763;42.714;23.244;2023-01-25T07:19:45;95615.50;;;4.98;66.82
11415;BME280;5763;42.714;23.244;2023-01-25T07:22:12;95618.59;;;5.00;66.05
11415;BME280;5763;42.714;23.244;2023-01-25T07:24:39;95620.53;;;4.96;66.16
11415;BME280;5763;42.714;23.244;2023-01-25T07:27:05;95630.59;;;5.03;65.91
11415;BME280;5763;42.714;23.244;2023-01-25T07:29:33;95627.50;;;4.97;66.01
11415;BME280;5763;42.714;23.244;2023-01-25T07:32:00;95629.06;;;4.91;66.25
11415;BME280;5763;42.714;23.244;2023-01-25T07:34:27;95633.69;;;5.01;66.35
11415;BME280;5763;42.714;23.244;2023-01-25T07:36:54;95629.81;;;5.02;66.09
11415;BME280;5763;42.714;23.244;2023-01-25T07:39:21;95639.88;;;5.09;66.03
11415;BME280;5763;42.714;23.244;2023-01-25T07:41:48;95643.78;;;5.08;66.20
11415;BME280;5763;42.714;23.244;2023-01-25T07:44:14;95646.50;;;5.04;66.21
11415;BME280;5763;42.714;23.244;2023-01-25T07:46:43;95634.09;;;4.96;66.82
11415;BME280;5763;42.714;23.244;2023-01-25T07:49:09;95642.25;;;4.93;67.51
11415;BME280;5763;42.714;23.244;2023-01-25T07:51:36;95640.69;;;4.95;67.37
11415;BME280;5763;42.714;23.244;2023-01-25T07:54:03;95630.59;;;5.03;67.20
11415;BME280;5763;42.714;23.244;2023-01-25T07:56:32;95633.28;;;5.10;67.41
11415;BME280;5763;42.714;23.244;2023-01-25T07:59:00;95632.13;;;5.11;67.82
11415;BME280;5763;42.714;23.244;2023-01-25T08:01:28;95630.16;;;5.18;67.43
11415;BME280;5763;42.714;23.244;2023-01-25T08:03:58;95635.97;;;5.24;67.42
11415;BME280;5763;42.714;23.244;2023-01-25T08:06:27;95630.97;;;5.15;67.27
11415;BME280;5763;42.714;23.244;2023-01-25T08:08:56;95629.34;;;5.28;67.18
11415;BME280;5763;42.714;23.244;2023-01-25T08:11:25;95634.00;;;5.31;67.24
11415;BME280;5763;42.714;23.244;2023-01-25T08:13:52;95625.84;;;5.35;67.40
11415;BME280;5763;42.714;23.244;2023-01-25T08:16:21;95637.50;;;5.35;67.00
11415;BME280;5763;42.714;23.244;2023-01-25T08:18:48;95623.94;;;5.35;67.33
11415;BME280;5763;42.714;23.244;2023-01-25T08:21:17;95623.16;;;5.31;67.44
11415;BME280;5763;42.714;23.244;2023-01-25T08:23:44;95627.00;;;5.37;66.80
11415;BME280;5763;42.714;23.244;2023-01-25T08:26:13;95626.69;;;5.11;67.48
11415;BME280;5763;42.714;23.244;2023-01-25T08:28:41;95634.47;;;5.05;67.80
11415;BME280;5763;42.714;23.244;2023-01-25T08:31:09;95633.34;;;4.99;67.79
11415;BME280;5763;42.714;23.244;2023-01-25T08:33:38;95622.88;;;4.87;68.29
11415;BME280;5763;42.714;23.244;2023-01-25T08:36:05;95621.34;;;4.79;69.00
11415;BME280;5763;42.714;23.244;2023-01-25T08:38:34;95625.59;;;4.80;69.04
11415;BME280;5763;42.714;23.244;2023-01-25T08:41:04;95629.09;;;4.84;68.54
11415;BME280;5763;42.714;23.244;2023-01-25T08:43:31;95627.94;;;4.85;68.71
11415;BME280;5763;42.714;23.244;2023-01-25T08:45:59;95615.91;;;4.90;68.71
11415;BME280;5763;42.714;23.244;2023-01-25T08:48:26;95618.25;;;4.77;68.62
11415;BME280;5763;42.714;23.244;2023-01-25T08:50:53;95616.69;;;4.87;68.22
11415;BME280;5763;42.714;23.244;2023-01-25T08:53:20;95619.75;;;4.92;68.31
11415;BME280;5763;42.714;23.244;2023-01-25T08:55:48;95621.69;;;5.09;67.57
11415;BME280;5763;42.714;23.244;2023-01-25T08:58:16;95622.81;;;5.08;67.59
11415;BME280;5763;42.714;23.244;2023-01-25T09:00:44;95619.75;;;5.06;67.44
11415;BME280;5763;42.714;23.244;2023-01-25T09:03:11;95619.75;;;4.96;67.75
11415;BME280;5763;42.714;23.244;2023-01-25T09:05:38;95615.13;;;4.89;68.26
11415;BME280;5763;42.714;23.244;2023-01-25T09:08:07;95625.19;;;5.03;68.02
11415;BME280;5763;42.714;23.244;2023-01-25T09:10:35;95620.50;;;5.10;67.93
11415;BME280;5763;42.714;23.244;2023-01-25T09:13:03;95623.59;;;5.12;67.88
11415;BME280;5763;42.714;23.244;2023-01-25T09:15:30;95620.09;;;5.19;67.42
11415;BME280;5763;42.714;23.244;2023-01-25T09:17:57;95611.94;;;5.22;67.63
11415;BME280;5763;42.714;23.244;2023-01-25T09:20:24;95612.75;;;5.09;67.89
11415;BME280;5763;42.714;23.244;2023-01-25T09:22:51;95603.84;;;5.15;67.32
11415;BME280;5763;42.714;23.244;2023-01-25T09:25:17;95577.19;;;4.89;67.15
11415;BME280;5763;42.714;23.244;2023-01-25T09:27:47;95599.56;;;5.14;67.65
11415;BME280;5763;42.714;23.244;2023-01-25T09:30:17;95599.91;;;5.23;67.36
11415;BME280;5763;42.714;23.244;2023-01-25T09:32:44;95593.31;;;5.24;67.74
11415;BME280;5763;42.714;23.244;2023-01-25T09:35:10;95590.97;;;5.30;67.37
11415;BME280;5763;42.714;23.244;2023-01-25T09:37:37;95598.34;;;5.29;67.46
11415;BME280;5763;42.714;23.244;2023-01-25T09:40:05;95590.19;;;5.36;67.37
11415;BME280;5763;42.714;23.244;2023-01-25T09:42:49;95582.06;;;5.29;67.91
11415;BME280;5763;42.714;23.244;2023-01-25T09:45:29;95573.19;;;5.25;67.94
11415;BME280;5763;42.714;23.244;2023-01-25T09:48:03;95571.59;;;5.24;68.36
11415;BME280;5763;42.714;23.244;2023-01-25T09:50:37;95570.84;;;5.27;67.91
11415;BME280;5763;42.714;23.244;2023-01-25T09:53:20;95564.59;;;5.37;68.31
11415;BME280;5763;42.714;23.244;2023-01-25T09:55:51;95558.78;;;5.35;68.43
11415;BME280;5763;42.714;23.244;2023-01-25T09:58:20;95559.53;;;5.43;68.28
11415;BME280;5763;42.714;23.244;2023-01-25T10:00:52;95539.72;;;5.49;68.27
11415;BME280;5763;42.714;23.244;2023-01-25T10:03:24;95549.84;;;5.45;68.47
11415;BME280;5763;42.714;23.244;2023-01-25T10:05:55;95546.72;;;5.43;68.59
11415;BME280;5763;42.714;23.244;2023-01-25T10:08:27;95540.94;;;5.34;68.55
11415;BME280;5763;42.714;23.244;2023-01-25T10:10:59;95530.94;;;5.21;69.31
11415;BME280;5763;42.714;23.244;2023-01-25T10:13:28;95540.22;;;5.30;68.88
11415;BME280;5763;42.714;23.244;2023-01-25T10:16:02;95530.56;;;5.22;69.64
11415;BME280;5763;42.714;23.244;2023-01-25T10:18:32;95511.91;;;5.24;69.48
11415;BME280;5763;42.714;23.244;2023-01-25T10:21:03;95520.38;;;5.44;69.26
11415;BME280;5763;42.714;23.244;2023-01-25T10:23:46;95504.00;;;5.54;68.94
11415;BME280;5763;42.714;23.244;2023-01-25T10:26:20;95512.50;;;5.60;68.67
11415;BME280;5763;42.714;23.244;2023-01-25T10:28:55;95507.09;;;5.60;68.97
11415;BME280;5763;42.714;23.244;2023-01-25T10:31:28;95507.13;;;5.49;68.99
11415;BME280;5763;42.714;23.244;2023-01-25T10:34:01;95469.31;;;5.25;68.74
11415;BME280;5763;42.714;23.244;2023-01-25T10:36:35;95494.28;;;5.60;68.66
11415;BME280;5763;42.714;23.244;2023-01-25T10:39:03;95497.66;;;5.78;67.54
11415;BME280;5763;42.714;23.244;2023-01-25T10:41:37;95492.59;;;5.80;67.72
11415;BME280;5763;42.714;23.244;2023-01-25T10:44:05;95491.78;;;5.87;66.83
11415;BME280;5763;42.714;23.244;2023-01-25T10:46:56;95490.16;;;6.00;65.71
11415;BME280;5763;42.714;23.244;2023-01-25T10:49:30;95482.28;;;6.09;65.21
11415;BME280;5763;42.714;23.244;2023-01-25T10:52:13;95478.00;;;6.15;64.42
11415;BME280;5763;42.714;23.244;2023-01-25T10:54:40;95477.50;;;6.23;64.23
11415;BME280;5763;42.714;23.244;2023-01-25T10:57:07;95488.09;;;6.11;63.24
11415;BME280;5763;42.714;23.244;2023-01-25T10:59:38;95477.28;;;6.07;63.47
11415;BME280;5763;42.714;23.244;2023-01-25T11:02:36;95474.25;;;5.98;64.30
11415;BME280;5763;42.714;23.244;2023-01-25T11:05:26;95474.25;;;5.98;64.47
11415;BME280;5763;42.714;23.244;2023-01-25T11:07:54;95468.81;;;5.98;63.91
11415;BME280;5763;42.714;23.244;2023-01-25T11:10:29;95466.84;;;6.02;63.45
11415;BME280;5763;42.714;23.244;2023-01-25T11:13:22;95459.13;;;5.97;64.47
11415;BME280;5763;42.714;23.244;2023-01-25T11:15:51;95443.97;;;6.00;63.72
11415;BME280;5763;42.714;23.244;2023-01-25T11:18:22;95449.44;;;5.93;63.61
11415;BME280;5763;42.714;23.244;2023-01-25T11:21:04;95447.50;;;5.93;64.31
11415;BME280;5763;42.714;23.244;2023-01-25T11:23:32;95440.81;;;6.01;63.86
11415;BME280;5763;42.714;23.244;2023-01-25T11:26:12;95447.84;;;5.99;62.82
11415;BME280;5763;42.714;23.244;2023-01-25T11:28:39;95449.31;;;6.07;62.27
11415;BME280;5763;42.714;23.244;2023-01-25T11:31:10;95445.78;;;6.13;62.18
11415;BME280;5763;42.714;23.244;2023-01-25T11:33:40;95446.59;;;6.07;62.94
11415;BME280;5763;42.714;23.244;2023-01-25T11:36:19;95429.78;;;6.22;62.51
11415;BME280;5763;42.714;23.244;2023-01-25T11:38:58;95440.50;;;6.36;62.14
11415;BME280;5763;42.714;23.244;2023-01-25T11:41:38;95420.75;;;6.32;62.16
11415;BME280;5763;42.714;23.244;2023-01-25T11:44:28;95421.19;;;6.24;62.97
11415;BME280;5763;42.714;23.244;2023-01-25T11:47:11;95411.03;;;6.35;62.03
11415;BME280;5763;42.714;23.244;2023-01-25T11:49:52;95410.94;;;6.42;61.97
11415;BME280;5763;42.714;23.244;2023-01-25T11:52:28;95406.22;;;6.46;62.49
11415;BME280;5763;42.714;23.244;2023-01-25T11:55:05;95400.06;;;6.42;62.22
11415;BME280;5763;42.714;23.244;2023-01-25T11:57:46;95401.94;;;6.48;62.21
11415;BME280;5763;42.714;23.244;2023-01-25T12:00:27;95405.78;;;6.51;62.30
11415;BME280;5763;42.714;23.244;2023-01-25T12:03:23;95396.09;;;6.46;61.72
11415;BME280;5763;42.714;23.244;2023-01-25T12:06:02;95393.78;;;6.45;61.67
11415;BME280;5763;42.714;23.244;2023-01-25T12:08:45;95388.28;;;6.52;61.05
11415;BME280;5763;42.714;23.244;2023-01-25T12:11:32;95394.03;;;6.24;61.17
11415;BME280;5763;42.714;23.244;2023-01-25T12:14:10;95392.56;;;6.16;61.38
11415;BME280;5763;42.714;23.244;2023-01-25T12:16:55;95389.91;;;6.12;61.50
11415;BME280;5763;42.714;23.244;2023-01-25T12:19:38;95380.31;;;6.01;61.83
11415;BME280;5763;42.714;23.244;2023-01-25T12:22:23;95381.81;;;6.05;61.47
11415;BME280;5763;42.714;23.244;2023-01-25T12:24:59;95374.84;;;6.04;61.39
11415;BME280;5763;42.714;23.244;2023-01-25T12:27:36;95374.53;;;5.95;61.63
11415;BME280;5763;42.714;23.244;2023-01-25T12:30:14;95379.44;;;6.11;60.91
11415;BME280;5763;42.714;23.244;2023-01-25T12:32:46;95367.03;;;6.10;60.94
11415;BME280;5763;42.714;23.244;2023-01-25T12:35:24;95371.59;;;6.16;60.62
11415;BME280;5763;42.714;23.244;2023-01-25T12:37:59;95363.09;;;6.14;61.25
11415;BME280;5763;42.714;23.244;2023-01-25T12:40:39;95358.56;;;6.01;61.48
11415;BME280;5763;42.714;23.244;2023-01-25T12:43:14;95363.50;;;6.13;61.72
11415;BME280;5763;42.714;23.244;2023-01-25T12:45:44;95273.59;;;5.63;61.45
11415;BME280;5763;42.714;23.244;2023-01-25T12:48:15;95349.75;;;6.27;61.12
11415;BME280;5763;42.714;23.244;2023-01-25T12:50:48;95357.75;;;6.07;61.27
11415;BME280;5763;42.714;23.244;2023-01-25T12:53:20;95350.91;;;5.92;61.83
11415;BME280;5763;42.714;23.244;2023-01-25T12:55:49;95344.84;;;5.74;62.77
11415;BME280;5763;42.714;23.244;2023-01-25T12:58:23;95341.63;;;5.90;62.63
11415;BME280;5763;42.714;23.244;2023-01-25T13:00:59;95339.22;;;5.95;62.23
11415;BME280;5763;42.714;23.244;2023-01-25T13:03:32;95348.50;;;5.98;61.83
11415;BME280;5763;42.714;23.244;2023-01-25T13:06:08;95330.09;;;5.75;62.57
11415;BME280;5763;42.714;23.244;2023-01-25T13:08:50;95327.81;;;5.70;63.01
11415;BME280;5763;42.714;23.244;2023-01-25T13:11:22;95331.31;;;5.71;62.54
11415;BME280;5763;42.714;23.244;2023-01-25T13:13:50;95326.34;;;5.62;62.96
11415;BME280;5763;42.714;23.244;2023-01-25T13:16:37;95327.25;;;5.49;63.54
11415;BME280;5763;42.714;23.244;2023-01-25T13:19:18;95324.44;;;5.59;63.30
11415;BME280;5763;42.714;23.244;2023-01-25T13:21:46;95333.97;;;5.74;62.78
11415;BME280;5763;42.714;23.244;2023-01-25T13:24:20;95324.78;;;5.65;63.27
11415;BME280;5763;42.714;23.244;2023-01-25T13:26:59;95324.00;;;5.64;63.27